createdAt,value
2022-12-19T00:01:39.448Z,-2.80
2022-12-19T00:04:11.432Z,-2.80
2022-12-19T00:06:43.548Z,-2.80
2022-12-19T00:09:13.018Z,-2.80
2022-12-19T00:11:41.008Z,-2.90
2022-12-19T00:14:11.251Z,-2.90
2022-12-19T00:16:38.628Z,-2.90
2022-12-19T00:19:06.345Z,-2.90
2022-12-19T00:21:35.269Z,-2.90
2022-12-19T00:24:16.270Z,-3.00
2022-12-19T00:26:49.307Z,-2.90
2022-12-19T00:29:16.824Z,-3.00
2022-12-19T00:31:45.082Z,-3.00
2022-12-19T00:34:15.230Z,-3.00
2022-12-19T00:36:42.812Z,-3.10
2022-12-19T00:39:11.737Z,-3.10
2022-12-19T00:41:42.026Z,-3.20
2022-12-19T00:44:14.298Z,-3.20
2022-12-19T00:46:42.714Z,-3.20
2022-12-19T00:49:14.311Z,-3.20
2022-12-19T00:51:41.619Z,-3.20
2022-12-19T00:54:10.104Z,-3.20
2022-12-19T00:56:38.511Z,-3.20
2022-12-19T00:59:10.670Z,-3.10
2022-12-19T01:01:41.850Z,-3.10
2022-12-19T01:04:28.104Z,-3.20
2022-12-19T01:07:01.639Z,-3.20
2022-12-19T01:09:33.377Z,-3.20
2022-12-19T01:12:19.415Z,-3.20
2022-12-19T01:14:48.287Z,-3.20
2022-12-19T01:17:15.687Z,-3.20
2022-12-19T01:19:44.584Z,-3.10
2022-12-19T01:22:15.235Z,-3.10
2022-12-19T01:24:42.595Z,-3.10
2022-12-19T01:27:09.950Z,-3.00
2022-12-19T01:29:52.512Z,-3.00
2022-12-19T01:32:21.456Z,-3.00
2022-12-19T01:34:49.032Z,-3.00
2022-12-19T01:37:19.107Z,-3.00
2022-12-19T01:39:46.413Z,-3.00
2022-12-19T01:42:23.212Z,-3.00
2022-12-19T01:45:17.527Z,-3.00
2022-12-19T01:47:59.769Z,-3.00
2022-12-19T01:50:37.762Z,-3.00
2022-12-19T01:53:10.724Z,-2.90
2022-12-19T01:55:39.917Z,-3.00
2022-12-19T01:58:08.493Z,-2.90
2022-12-19T02:00:35.861Z,-2.90
2022-12-19T02:03:17.163Z,-2.90
2022-12-19T02:05:45.080Z,-2.90
2022-12-19T02:08:14.446Z,-2.90
2022-12-19T02:10:41.872Z,-3.00
2022-12-19T02:13:10.492Z,-2.90
2022-12-19T02:15:59.508Z,-3.00
2022-12-19T02:18:55.819Z,-2.90
2022-12-19T02:21:42.381Z,-2.90
2022-12-19T02:24:14.614Z,-3.00
2022-12-19T02:26:48.681Z,-3.00
2022-12-19T02:29:45.016Z,-3.00
2022-12-19T02:32:15.462Z,-3.00
2022-12-19T02:34:54.079Z,-2.90
2022-12-19T02:37:28.764Z,-2.90
2022-12-19T02:40:06.817Z,-2.90
2022-12-19T02:42:39.033Z,-2.80
2022-12-19T02:45:09.133Z,-2.90
2022-12-19T02:47:38.580Z,-2.90
2022-12-19T02:50:08.321Z,-2.90
2022-12-19T02:52:35.718Z,-2.80
2022-12-19T02:55:15.967Z,-2.80
2022-12-19T02:58:09.802Z,-2.80
2022-12-19T03:00:54.641Z,-2.80
2022-12-19T03:03:34.186Z,-2.80
2022-12-19T03:06:22.672Z,-2.70
2022-12-19T03:09:22.194Z,-2.70
2022-12-19T03:11:57.924Z,-2.70
2022-12-19T03:14:27.062Z,-2.70
2022-12-19T03:16:56.052Z,-2.80
2022-12-19T03:19:24.455Z,-2.70
2022-12-19T03:21:53.051Z,-2.70
2022-12-19T03:24:20.614Z,-2.70
2022-12-19T03:27:08.744Z,-2.70
2022-12-19T03:29:53.557Z,-2.60
2022-12-19T03:32:23.266Z,-2.60
2022-12-19T03:34:59.824Z,-2.50
2022-12-19T03:37:31.913Z,-2.50
2022-12-19T03:40:04.558Z,-2.50
2022-12-19T03:42:52.601Z,-2.40
2022-12-19T03:45:34.340Z,-2.50
2022-12-19T03:48:07.793Z,-2.40
2022-12-19T03:50:48.970Z,-2.40
2022-12-19T03:53:24.726Z,-2.40
2022-12-19T03:56:22.362Z,-2.40
2022-12-19T03:58:57.745Z,-2.30
2022-12-19T04:01:28.021Z,-2.20
2022-12-19T04:03:58.260Z,-2.20
2022-12-19T04:06:28.411Z,-2.30
2022-12-19T04:08:57.610Z,-2.30
2022-12-19T04:11:27.605Z,-2.30
2022-12-19T04:14:04.366Z,-2.30
2022-12-19T04:16:48.318Z,-2.30
2022-12-19T04:19:32.111Z,-2.30
2022-12-19T04:22:17.037Z,-2.30
2022-12-19T04:24:46.956Z,-2.20
2022-12-19T04:27:15.142Z,-2.20
2022-12-19T04:29:43.549Z,-2.20
2022-12-19T04:32:13.201Z,-2.10
2022-12-19T04:34:42.994Z,-2.10
2022-12-19T04:37:11.979Z,-2.10
2022-12-19T04:39:39.258Z,-2.20
2022-12-19T04:42:06.564Z,-2.10
2022-12-19T04:44:33.811Z,-2.10
2022-12-19T04:47:01.081Z,-2.20
2022-12-19T04:49:29.162Z,-2.10
2022-12-19T04:51:56.399Z,-2.10
2022-12-19T04:54:23.589Z,-2.10
2022-12-19T04:56:50.858Z,-2.10
2022-12-19T04:59:18.124Z,-2.10
2022-12-19T05:01:45.708Z,-2.20
2022-12-19T05:04:13.183Z,-2.20
2022-12-19T05:06:40.481Z,-2.10
2022-12-19T05:09:07.747Z,-2.10
2022-12-19T05:11:35.010Z,-2.00
2022-12-19T05:14:02.471Z,-2.00
2022-12-19T05:16:29.872Z,-2.00
2022-12-19T05:18:57.167Z,-2.00
2022-12-19T05:21:24.838Z,-2.00
2022-12-19T05:23:52.063Z,-1.90
2022-12-19T05:26:19.593Z,-1.90
2022-12-19T05:28:47.607Z,-1.90
2022-12-19T05:31:20.809Z,-1.80
2022-12-19T05:33:49.012Z,-1.80
2022-12-19T05:36:17.470Z,-1.80
2022-12-19T05:38:45.075Z,-1.90
2022-12-19T05:41:15.914Z,-1.90
2022-12-19T05:43:44.965Z,-1.90
2022-12-19T05:46:12.421Z,-1.90
2022-12-19T05:48:39.789Z,-1.80
2022-12-19T05:51:07.105Z,-1.80
2022-12-19T05:53:38.460Z,-1.80
2022-12-19T05:56:14.195Z,-1.80
2022-12-19T05:58:42.469Z,-1.70
2022-12-19T06:01:11.428Z,-1.70
2022-12-19T06:03:39.537Z,-1.70
2022-12-19T06:06:12.978Z,-1.70
2022-12-19T06:08:41.405Z,-1.70
2022-12-19T06:11:10.282Z,-1.60
2022-12-19T06:13:38.180Z,-1.70
2022-12-19T06:16:14.221Z,-1.70
2022-12-19T06:18:44.802Z,-1.70
2022-12-19T06:21:16.299Z,-1.60
2022-12-19T06:23:44.011Z,-1.60
2022-12-19T06:26:18.583Z,-1.60
2022-12-19T06:28:47.704Z,-1.60
2022-12-19T06:31:15.460Z,-1.60
2022-12-19T06:33:42.854Z,-1.60
2022-12-19T06:36:25.423Z,-1.60
2022-12-19T06:38:53.945Z,-1.70
2022-12-19T06:41:40.081Z,-1.70
2022-12-19T06:44:12.136Z,-1.60
2022-12-19T06:46:40.850Z,-1.60
2022-12-19T06:49:08.947Z,-1.60
2022-12-19T06:51:36.706Z,-1.60
2022-12-19T06:54:04.301Z,-1.60
2022-12-19T06:56:39.677Z,-1.60
2022-12-19T06:59:07.949Z,-1.50
2022-12-19T07:01:48.721Z,-1.50
2022-12-19T07:04:22.188Z,-1.50
2022-12-19T07:06:49.925Z,-1.50
2022-12-19T07:09:18.440Z,-1.40
2022-12-19T07:11:45.901Z,-1.40
2022-12-19T07:14:13.215Z,-1.40
2022-12-19T07:16:41.528Z,-1.30
2022-12-19T07:19:10.125Z,-1.30
2022-12-19T07:21:39.106Z,-1.20
2022-12-19T07:24:07.523Z,-1.20
2022-12-19T07:26:36.019Z,-1.30
2022-12-19T07:29:03.970Z,-1.20
2022-12-19T07:31:31.336Z,-1.20
2022-12-19T07:33:59.159Z,-1.20
2022-12-19T07:36:27.499Z,-1.20
2022-12-19T07:38:54.916Z,-1.20
2022-12-19T07:41:22.278Z,-1.10
2022-12-19T07:43:49.570Z,-1.20
2022-12-19T07:46:16.800Z,-1.10
2022-12-19T07:48:44.052Z,-1.00
2022-12-19T07:51:11.404Z,-1.00
2022-12-19T07:53:38.692Z,-1.00
2022-12-19T07:56:06.349Z,-1.00
2022-12-19T07:58:34.155Z,-0.90
2022-12-19T08:01:01.573Z,-0.90
2022-12-19T08:03:28.945Z,-0.90
2022-12-19T08:06:01.260Z,-0.90
2022-12-19T08:08:30.600Z,-0.80
2022-12-19T08:11:09.436Z,-0.90
2022-12-19T08:13:40.747Z,-0.80
2022-12-19T08:16:12.110Z,-0.70
2022-12-19T08:18:39.522Z,-0.70
2022-12-19T08:21:09.200Z,-0.70
2022-12-19T08:23:36.711Z,-0.60
2022-12-19T08:26:10.580Z,-0.60
2022-12-19T08:28:38.242Z,-0.50
2022-12-19T08:31:15.757Z,-0.40
2022-12-19T08:33:43.816Z,-0.30
2022-12-19T08:36:13.953Z,-0.30
2022-12-19T08:38:41.445Z,-0.20
2022-12-19T08:41:09.314Z,-0.20
2022-12-19T08:43:36.830Z,-0.10
2022-12-19T08:46:05.092Z,-0.10
2022-12-19T08:48:33.727Z,0.00
2022-12-19T08:51:04.006Z,0.00
2022-12-19T08:53:34.093Z,0.00
2022-12-19T08:56:11.609Z,0.10
2022-12-19T08:58:38.930Z,0.20
2022-12-19T09:01:11.500Z,0.20
2022-12-19T09:04:09.566Z,0.40
2022-12-19T09:06:26.584Z,0.30
2022-12-19T09:08:54.042Z,0.50
2022-12-19T09:11:27.991Z,0.50
2022-12-19T09:13:57.532Z,0.60
2022-12-19T09:16:27.280Z,0.70
2022-12-19T09:18:58.843Z,0.80
2022-12-19T09:21:29.334Z,0.90
2022-12-19T09:24:05.276Z,0.90
2022-12-19T09:26:35.374Z,1.00
2022-12-19T09:29:10.996Z,1.00
2022-12-19T09:31:55.402Z,1.10
2022-12-19T09:34:37.949Z,1.20
2022-12-19T09:37:16.335Z,1.40
2022-12-19T09:39:48.265Z,1.40
2022-12-19T09:42:31.284Z,1.30
2022-12-19T09:45:31.141Z,1.30
2022-12-19T09:48:00.643Z,1.40
2022-12-19T09:50:39.782Z,1.30
2022-12-19T09:53:21.458Z,1.30
2022-12-19T09:55:49.503Z,1.40
2022-12-19T09:58:16.794Z,1.60
2022-12-19T10:00:56.483Z,1.70
2022-12-19T10:03:41.791Z,1.70
2022-12-19T10:07:09.487Z,1.70
2022-12-19T10:10:32.907Z,1.90
2022-12-19T10:12:44.974Z,2.10
2022-12-19T10:15:43.947Z,2.10
2022-12-19T10:18:35.128Z,2.10
2022-12-19T10:22:15.574Z,2.10
2022-12-19T10:24:46.530Z,2.10
2022-12-19T10:27:59.721Z,2.30
2022-12-19T10:30:32.361Z,2.40
2022-12-19T10:33:19.952Z,2.40
2022-12-19T10:35:54.387Z,2.50
2022-12-19T10:38:35.615Z,2.50
2022-12-19T10:41:28.386Z,2.70
2022-12-19T10:44:05.955Z,2.80
2022-12-19T10:46:43.804Z,2.80
2022-12-19T10:49:13.244Z,2.70
2022-12-19T10:51:42.358Z,2.80
2022-12-19T10:54:09.671Z,2.70
2022-12-19T10:56:38.049Z,2.70
2022-12-19T10:59:17.310Z,2.70
2022-12-19T11:01:45.435Z,2.50
2022-12-19T11:04:24.505Z,2.40
2022-12-19T11:07:11.604Z,2.40
2022-12-19T11:09:44.571Z,2.40
2022-12-19T11:15:48.029Z,2.30
2022-12-19T11:19:58.168Z,2.30
2022-12-19T11:29:15.299Z,2.30
2022-12-19T11:29:26.395Z,2.40
2022-12-19T11:30:36.760Z,2.40
2022-12-19T11:30:41.734Z,2.40
2022-12-19T11:32:43.659Z,2.60
2022-12-19T11:35:25.262Z,2.70
2022-12-19T11:38:06.242Z,2.80
2022-12-19T11:40:48.646Z,2.80
2022-12-19T11:43:44.862Z,2.90
2022-12-19T11:46:31.184Z,2.90
2022-12-19T11:49:10.172Z,3.00
2022-12-19T11:51:51.609Z,3.10
2022-12-19T11:54:32.813Z,3.30
2022-12-19T11:57:00.535Z,3.40
2022-12-19T11:59:38.511Z,3.40
2022-12-19T12:02:36.594Z,3.50
2022-12-19T12:05:25.651Z,3.60
2022-12-19T12:09:58.891Z,3.40
2022-12-19T12:18:28.969Z,3.40
2022-12-19T12:23:46.625Z,3.40
2022-12-19T12:30:34.889Z,3.40
2022-12-19T12:31:10.434Z,3.30
2022-12-19T12:31:52.367Z,3.30
2022-12-19T12:32:06.163Z,3.20
2022-12-19T12:35:09.653Z,2.90
2022-12-19T12:35:47.067Z,3.00
2022-12-19T12:38:25.663Z,2.90
2022-12-19T12:41:09.389Z,3.00
2022-12-19T12:44:06.406Z,3.00
2022-12-19T12:46:40.476Z,3.00
2022-12-19T12:49:34.885Z,3.00
2022-12-19T12:52:05.127Z,3.10
2022-12-19T12:54:41.815Z,3.10
2022-12-19T12:57:36.183Z,3.10
2022-12-19T13:00:25.811Z,3.10
2022-12-19T13:03:04.955Z,3.10
2022-12-19T13:05:32.191Z,3.10
2022-12-19T13:07:59.676Z,3.10
2022-12-19T13:10:33.023Z,3.10
2022-12-19T13:13:17.529Z,3.10
2022-12-19T13:15:48.466Z,3.10
2022-12-19T13:18:35.585Z,3.20
2022-12-19T13:21:05.172Z,3.20
2022-12-19T13:23:38.680Z,3.20
2022-12-19T13:26:39.683Z,3.30
2022-12-19T13:29:31.580Z,3.40
2022-12-19T13:32:53.667Z,3.50
2022-12-19T13:36:24.125Z,3.60
2022-12-19T13:39:58.209Z,3.70
2022-12-19T13:41:48.098Z,3.70
2022-12-19T13:44:21.858Z,3.80
2022-12-19T13:46:49.734Z,3.80
2022-12-19T13:49:24.007Z,3.90
2022-12-19T13:51:57.202Z,3.90
2022-12-19T13:54:26.929Z,3.90
2022-12-19T13:56:55.569Z,3.80
2022-12-19T13:59:26.013Z,3.70
2022-12-19T14:01:54.980Z,3.60
2022-12-19T14:04:27.051Z,3.60
2022-12-19T14:07:14.464Z,3.50
2022-12-19T14:11:29.800Z,3.50
2022-12-19T14:14:01.377Z,3.40
2022-12-19T14:15:52.423Z,3.30
2022-12-19T14:18:43.398Z,3.20
2022-12-19T14:22:06.092Z,3.10
2022-12-19T14:24:19.500Z,3.00
2022-12-19T14:28:21.386Z,3.00
2022-12-19T14:30:28.718Z,2.90
2022-12-19T14:33:39.297Z,2.90
2022-12-19T14:36:05.087Z,2.80
2022-12-19T14:39:25.665Z,2.70
2022-12-19T14:41:09.062Z,2.70
2022-12-19T14:43:59.838Z,2.60
2022-12-19T14:52:35.816Z,2.60
2022-12-19T14:54:10.123Z,2.50
2022-12-19T14:54:28.275Z,2.50
2022-12-19T14:56:17.644Z,2.40
2022-12-19T14:58:55.935Z,2.40
2022-12-19T15:01:27.251Z,2.40
2022-12-19T15:04:50.396Z,2.40
2022-12-19T15:07:07.657Z,2.30
2022-12-19T15:11:08.579Z,2.30
2022-12-19T15:14:49.362Z,2.30
2022-12-19T15:16:05.955Z,2.20
2022-12-19T15:18:33.371Z,2.20
2022-12-19T15:21:06.095Z,2.20
2022-12-19T15:23:33.354Z,2.10
2022-12-19T15:26:04.517Z,2.10
2022-12-19T15:28:52.697Z,2.20
2022-12-19T15:31:39.862Z,2.10
2022-12-19T15:34:36.878Z,2.10
2022-12-19T15:37:05.700Z,2.00
2022-12-19T15:39:33.060Z,2.00
2022-12-19T15:42:01.268Z,2.00
2022-12-19T15:44:40.445Z,1.90
2022-12-19T15:47:29.026Z,1.90
2022-12-19T15:49:56.228Z,1.90
2022-12-19T15:52:25.576Z,1.80
2022-12-19T15:54:52.928Z,1.80
2022-12-19T15:57:29.303Z,1.80
2022-12-19T15:59:58.302Z,1.70
2022-12-19T16:02:42.687Z,1.70
2022-12-19T16:05:15.486Z,1.70
2022-12-19T16:07:43.205Z,1.70
2022-12-19T16:10:11.519Z,1.70
2022-12-19T16:12:41.776Z,1.70
2022-12-19T16:15:20.364Z,1.80
2022-12-19T16:17:47.633Z,1.80
2022-12-19T16:20:23.972Z,1.80
2022-12-19T16:22:51.694Z,1.70
2022-12-19T16:25:19.850Z,1.70
2022-12-19T16:27:53.111Z,1.70
2022-12-19T16:30:23.376Z,1.70
2022-12-19T16:32:50.922Z,1.70
2022-12-19T16:35:40.328Z,1.70
2022-12-19T16:38:09.342Z,1.70
2022-12-19T16:40:36.774Z,1.80
2022-12-19T16:43:06.630Z,1.70
2022-12-19T16:45:34.621Z,1.70
2022-12-19T16:48:01.954Z,1.70
2022-12-19T16:50:31.320Z,1.60
2022-12-19T16:52:58.580Z,1.70
2022-12-19T16:55:26.523Z,1.70
2022-12-19T16:57:56.143Z,1.60
2022-12-19T17:00:24.596Z,1.60
2022-12-19T17:03:03.142Z,1.60
2022-12-19T17:05:32.288Z,1.60
2022-12-19T17:08:00.004Z,1.60
2022-12-19T17:10:33.162Z,1.60
2022-12-19T17:13:03.322Z,1.60
2022-12-19T17:15:36.839Z,1.60
2022-12-19T17:18:14.038Z,1.60
2022-12-19T17:20:45.483Z,1.60
2022-12-19T17:23:19.566Z,1.60
2022-12-19T17:25:46.929Z,1.60
2022-12-19T17:28:15.088Z,1.60
2022-12-19T17:30:44.529Z,1.60
2022-12-19T17:33:16.228Z,1.60
2022-12-19T17:35:45.077Z,1.60
2022-12-19T17:38:14.427Z,1.60
2022-12-19T17:40:42.474Z,1.60
2022-12-19T17:43:13.835Z,1.50
2022-12-19T17:45:41.788Z,1.60
2022-12-19T17:48:32.929Z,1.50
2022-12-19T17:51:00.509Z,1.50
2022-12-19T17:53:28.017Z,1.40
2022-12-19T17:55:55.285Z,1.40
2022-12-19T17:58:22.514Z,1.40
2022-12-19T18:00:50.708Z,1.40
2022-12-19T18:03:20.269Z,1.40
2022-12-19T18:05:48.893Z,1.30
2022-12-19T18:08:28.574Z,1.30
2022-12-19T18:10:58.011Z,1.30
2022-12-19T18:13:26.887Z,1.30
2022-12-19T18:15:58.517Z,1.30
2022-12-19T18:18:30.054Z,1.40
2022-12-19T18:20:59.572Z,1.30
2022-12-19T18:23:27.284Z,1.30
2022-12-19T18:25:59.427Z,1.20
2022-12-19T18:28:29.213Z,1.30
2022-12-19T18:31:04.250Z,1.20
2022-12-19T18:33:39.077Z,1.20
2022-12-19T18:36:07.970Z,1.20
2022-12-19T18:38:35.460Z,1.20
2022-12-19T18:41:02.869Z,1.20
2022-12-19T18:43:31.239Z,1.20
2022-12-19T18:45:58.671Z,1.20
2022-12-19T18:48:29.109Z,1.20
2022-12-19T18:50:57.627Z,1.20
2022-12-19T18:53:34.501Z,1.20
2022-12-19T18:56:04.467Z,1.20
2022-12-19T18:58:32.195Z,1.20
2022-12-19T19:01:00.958Z,1.10
2022-12-19T19:03:32.432Z,1.00
2022-12-19T19:06:00.384Z,1.00
2022-12-19T19:08:30.514Z,1.00
2022-12-19T19:11:09.885Z,0.90
2022-12-19T19:13:37.168Z,0.80
2022-12-19T19:16:19.157Z,0.80
2022-12-19T19:18:48.779Z,0.80
2022-12-19T19:21:16.663Z,0.80
2022-12-19T19:23:55.500Z,0.70
2022-12-19T19:26:22.769Z,0.70
2022-12-19T19:28:52.659Z,0.70
2022-12-19T19:31:24.594Z,0.70
2022-12-19T19:33:56.440Z,0.70
2022-12-19T19:36:28.229Z,0.70
2022-12-19T19:38:56.255Z,0.70
2022-12-19T19:41:29.769Z,0.70
2022-12-19T19:43:58.888Z,0.80
2022-12-19T19:46:31.131Z,0.80
2022-12-19T19:48:58.981Z,0.80
2022-12-19T19:51:29.030Z,0.80
2022-12-19T19:53:56.734Z,0.80
2022-12-19T19:56:23.991Z,0.80
2022-12-19T19:58:51.185Z,0.90
2022-12-19T20:01:18.813Z,0.90
2022-12-19T20:03:46.465Z,0.90
2022-12-19T20:06:14.630Z,0.90
2022-12-19T20:08:41.969Z,0.90
2022-12-19T20:11:10.894Z,0.80
2022-12-19T20:13:38.577Z,0.80
2022-12-19T20:16:12.488Z,0.80
2022-12-19T20:18:40.594Z,0.80
2022-12-19T20:21:13.477Z,0.80
2022-12-19T20:23:42.808Z,0.70
2022-12-19T20:26:11.606Z,0.70
2022-12-19T20:28:47.747Z,0.60
2022-12-19T20:31:15.452Z,0.60
2022-12-19T20:33:42.795Z,0.60
2022-12-19T20:36:12.183Z,0.60
2022-12-19T20:38:39.864Z,0.70
2022-12-19T20:41:07.791Z,0.60
2022-12-19T20:43:35.270Z,0.60
2022-12-19T20:46:05.500Z,0.60
2022-12-19T20:48:33.541Z,0.60
2022-12-19T20:51:04.629Z,0.60
2022-12-19T20:53:33.441Z,0.60
2022-12-19T20:56:02.430Z,0.60
2022-12-19T20:58:32.421Z,0.70
2022-12-19T21:01:07.089Z,0.60
2022-12-19T21:03:35.830Z,0.60
2022-12-19T21:06:04.028Z,0.60
2022-12-19T21:08:32.074Z,0.70
2022-12-19T21:11:01.248Z,0.70
2022-12-19T21:13:28.882Z,0.70
2022-12-19T21:15:58.633Z,0.70
2022-12-19T21:18:26.856Z,0.70
2022-12-19T21:20:54.922Z,0.70
2022-12-19T21:23:23.526Z,0.70
2022-12-19T21:25:51.280Z,0.70
2022-12-19T21:28:19.278Z,0.70
2022-12-19T21:30:46.656Z,0.70
2022-12-19T21:33:14.015Z,0.70
2022-12-19T21:35:41.304Z,0.70
2022-12-19T21:38:08.502Z,0.70
2022-12-19T21:40:36.767Z,0.80
2022-12-19T21:43:09.758Z,0.80
2022-12-19T21:45:39.721Z,0.80
2022-12-19T21:48:07.066Z,0.90
2022-12-19T21:50:34.366Z,0.90
2022-12-19T21:53:01.608Z,0.90
2022-12-19T21:55:28.875Z,0.90
2022-12-19T21:57:56.318Z,0.90
2022-12-19T22:00:23.818Z,0.90
2022-12-19T22:03:12.484Z,0.90
2022-12-19T22:05:39.326Z,0.90
2022-12-19T22:08:06.533Z,0.90
2022-12-19T22:10:33.783Z,0.90
2022-12-19T22:13:01.067Z,0.90
2022-12-19T22:15:28.295Z,0.90
2022-12-19T22:17:55.524Z,0.90
2022-12-19T22:20:22.772Z,1.00
2022-12-19T22:22:50.047Z,1.00
2022-12-19T22:25:17.667Z,1.00
2022-12-19T22:27:44.874Z,1.00
2022-12-19T22:30:12.504Z,1.00
2022-12-19T22:32:39.775Z,1.00
2022-12-19T22:35:07.617Z,1.10
2022-12-19T22:37:34.907Z,1.00
2022-12-19T22:40:04.231Z,1.00
2022-12-19T22:42:31.516Z,1.00
2022-12-19T22:44:59.425Z,1.00
2022-12-19T22:47:26.745Z,1.00
2022-12-19T22:49:53.990Z,1.00
2022-12-19T22:52:21.322Z,1.00
2022-12-19T22:54:48.609Z,1.10
2022-12-19T22:57:15.978Z,1.00
2022-12-19T22:59:43.293Z,1.10
2022-12-19T23:02:10.881Z,1.10
2022-12-19T23:04:38.231Z,1.10
2022-12-19T23:07:05.534Z,1.10
2022-12-19T23:09:33.153Z,1.10
2022-12-19T23:12:00.448Z,1.10
2022-12-19T23:14:27.679Z,1.10
2022-12-19T23:16:54.989Z,1.10
2022-12-19T23:19:22.369Z,1.10
2022-12-19T23:21:49.687Z,1.20
2022-12-19T23:24:17.169Z,1.20
2022-12-19T23:26:44.787Z,1.30
2022-12-19T23:29:14.750Z,1.30
2022-12-19T23:31:44.987Z,1.40
2022-12-19T23:34:12.908Z,1.50
2022-12-19T23:39:28.024Z,1.50
2022-12-19T23:41:55.429Z,1.50
2022-12-19T23:44:23.097Z,1.60
2022-12-19T23:46:50.407Z,1.60
2022-12-19T23:49:17.643Z,1.60
2022-12-19T23:51:45.099Z,1.70
2022-12-19T23:54:12.443Z,1.70
2022-12-19T23:56:39.823Z,1.70
2022-12-19T23:59:07.052Z,1.70
